createdAt,value
2022-10-04T00:06:13.026Z,6.37123745819398
2022-10-04T00:12:40.353Z,7.197324414715719
2022-10-04T00:25:40.830Z,7.615384615384615
2022-10-04T00:32:07.799Z,7.2842809364548495
2022-10-04T00:38:34.557Z,7.207357859531773
2022-10-04T00:45:01.719Z,7.806020066889632
2022-10-04T00:52:53.709Z,8.411371237458194
2022-10-04T00:59:20.785Z,8.903010033444817
2022-10-04T01:07:10.191Z,8.806020066889632
2022-10-04T01:13:37.721Z,8.695652173913043
2022-10-04T01:20:04.685Z,9.76923076923077
2022-10-04T01:32:29.788Z,9.698996655518394
2022-10-04T01:38:56.971Z,10.498327759197325
2022-10-04T01:45:24.734Z,10.735785953177258
2022-10-04T01:51:51.523Z,11.22742474916388
2022-10-04T01:58:18.462Z,10.54180602006689
2022-10-04T02:13:34.594Z,10.62876254180602
2022-10-04T02:20:48.708Z,10.434782608695652
2022-10-04T02:27:30.364Z,10.518394648829432
2022-10-04T02:39:34.017Z,11.066889632107024
2022-10-04T02:50:31.118Z,10.397993311036789
2022-10-04T02:57:09.231Z,10.210702341137123
2022-10-04T03:03:46.170Z,9.899665551839465
2022-10-04T03:15:00.714Z,9.080267558528428
2022-10-04T03:21:27.851Z,9.220735785953178
2022-10-04T03:28:02.191Z,9.501672240802675
2022-10-04T03:34:30.556Z,9.481605351170568
2022-10-04T03:40:57.944Z,9.715719063545151
2022-10-04T03:47:25.409Z,9.709030100334449
2022-10-04T03:53:52.625Z,9.852842809364548
2022-10-04T04:00:20.435Z,9.45819397993311
2022-10-04T04:06:48.134Z,10.193979933110368
2022-10-04T04:13:15.411Z,10.130434782608695
2022-10-04T04:19:44.537Z,10.334448160535118
2022-10-04T04:26:32.219Z,10.387959866220736
2022-10-04T04:33:00.249Z,10.464882943143813
2022-10-04T04:44:30.726Z,11.732441471571907
2022-10-04T04:54:35.799Z,12.160535117056856
2022-10-04T05:03:46.586Z,12.892976588628763
2022-10-04T05:10:15.181Z,13.384615384615385
2022-10-04T05:18:26.553Z,13.535117056856187
2022-10-04T05:24:54.328Z,13.996655518394649
2022-10-04T05:31:25.458Z,14.799331103678929
2022-10-04T05:39:25.431Z,14.645484949832776
2022-10-04T05:46:30.660Z,15.51505016722408
2022-10-04T05:52:59.372Z,16.993311036789297
2022-10-04T05:59:31.332Z,16.153846153846153
2022-10-04T06:08:02.567Z,17.698996655518396
2022-10-04T06:14:33.712Z,18.47826086956522
2022-10-04T06:26:50.525Z,17.555183946488295
2022-10-04T06:33:18.912Z,17.652173913043477
2022-10-04T06:40:48.759Z,18.391304347826086
2022-10-04T06:47:17.194Z,17.100334448160535
2022-10-04T06:53:45.110Z,17.431438127090303
2022-10-04T07:03:30.527Z,17.869565217391305
2022-10-04T07:09:58.386Z,17.91638795986622
2022-10-04T07:21:37.028Z,20.581939799331103
2022-10-04T07:28:33.649Z,19.207357859531772
2022-10-04T07:35:01.621Z,19.555183946488295
2022-10-04T07:41:30.696Z,19.110367892976587
2022-10-04T07:59:08.808Z,17.648829431438127
2022-10-04T08:06:57.912Z,17.70903010033445
2022-10-04T08:13:25.626Z,15.91304347826087
2022-10-04T08:19:53.255Z,14.080267558528428
2022-10-04T08:26:34.980Z,13.505016722408026
2022-10-04T08:33:02.586Z,15.107023411371237
2022-10-04T08:39:31.113Z,13.177257525083611
2022-10-04T08:51:53.453Z,11.62541806020067
2022-10-04T08:58:32.492Z,11.505016722408026
2022-10-04T09:08:00.647Z,10.735785953177258
2022-10-04T09:14:31.693Z,10.668896321070234
2022-10-04T09:21:00.294Z,10.842809364548495
2022-10-04T09:33:53.144Z,11.351170568561873
2022-10-04T09:40:24.656Z,9.809364548494983
2022-10-04T09:48:00.870Z,10.040133779264215
2022-10-04T09:55:43.724Z,8.307692307692308
2022-10-04T10:02:18.888Z,7.030100334448161
2022-10-04T10:08:50.505Z,6.565217391304348
2022-10-04T10:15:19.889Z,7.565217391304348
2022-10-04T10:21:50.177Z,7.896321070234114
2022-10-04T10:31:37.312Z,7.889632107023411
2022-10-04T10:38:07.259Z,7.6755852842809364
2022-10-04T10:44:36.065Z,7.926421404682274
2022-10-04T10:51:03.758Z,7.792642140468227
2022-10-04T11:03:59.480Z,6.528428093645485
2022-10-04T11:10:27.810Z,4.672240802675585
2022-10-04T11:22:15.991Z,4.595317725752508
2022-10-04T11:29:09.162Z,4.548494983277592
2022-10-04T11:35:52.877Z,4.053511705685619
2022-10-04T11:43:51.272Z,5.361204013377926
2022-10-04T11:50:24.124Z,6.334448160535117
2022-10-04T11:56:52.361Z,6.367892976588629
2022-10-04T12:03:19.760Z,6.789297658862877
2022-10-04T12:09:48.691Z,7.408026755852843
2022-10-04T12:21:52.715Z,7.351170568561873
2022-10-04T12:29:36.079Z,6.872909698996655
2022-10-04T12:36:03.678Z,6.762541806020067
2022-10-04T12:45:00.047Z,7.280936454849498
2022-10-04T12:56:29.029Z,7.505016722408027
2022-10-04T13:08:47.094Z,7.076923076923077
2022-10-04T13:15:15.149Z,8.25418060200669
2022-10-04T13:21:42.625Z,7.839464882943144
2022-10-04T13:28:21.249Z,6.906354515050167
2022-10-04T13:34:48.532Z,6.193979933110368
2022-10-04T13:41:15.724Z,7.240802675585284
2022-10-04T13:47:44.095Z,8.732441471571907
2022-10-04T13:54:12.709Z,7.270903010033445
2022-10-04T14:00:40.734Z,6.879598662207358
2022-10-04T14:07:07.824Z,7.2842809364548495
2022-10-04T14:13:39.992Z,6.377926421404682
2022-10-04T14:20:07.405Z,6.107023411371237
2022-10-04T14:26:43.037Z,7.0
2022-10-04T14:33:10.844Z,7.331103678929765
2022-10-04T14:39:38.369Z,7.090301003344481
2022-10-04T14:46:06.263Z,6.913043478260869
2022-10-04T14:53:07.642Z,7.013377926421405
2022-10-04T14:59:35.447Z,7.632107023411371
2022-10-04T15:07:32.743Z,7.672240802675585
2022-10-04T15:23:06.119Z,7.3879598662207355
2022-10-04T15:32:26.627Z,7.561872909698996
2022-10-04T15:38:54.400Z,8.090301003344482
2022-10-04T15:51:45.502Z,6.555183946488294
2022-10-04T15:58:13.408Z,6.40133779264214
2022-10-04T16:04:41.682Z,6.832775919732441
2022-10-04T16:11:09.343Z,7.575250836120401
2022-10-04T16:17:40.198Z,7.361204013377926
2022-10-04T16:24:23.559Z,7.625418060200669
2022-10-04T16:30:51.291Z,6.7725752508361206
2022-10-04T16:40:34.183Z,6.214046822742475
2022-10-04T16:47:50.998Z,6.481605351170568
2022-10-04T16:54:20.080Z,7.20066889632107
2022-10-04T17:00:48.524Z,7.498327759197324
2022-10-04T17:07:16.387Z,9.749163879598662
2022-10-04T17:13:45.335Z,13.729096989966555
2022-10-04T17:20:15.503Z,23.578595317725753
2022-10-04T17:33:00.185Z,18.240802675585286
2022-10-04T17:39:28.397Z,13.959866220735785
2022-10-04T17:45:57.102Z,15.25418060200669
2022-10-04T17:52:26.291Z,21.842809364548494
2022-10-04T17:58:54.706Z,19.05016722408027
2022-10-04T18:05:23.298Z,16.204013377926422
2022-10-04T18:13:44.900Z,12.648829431438127
2022-10-04T18:26:24.602Z,12.719063545150501
2022-10-04T18:35:45.547Z,12.103678929765886
2022-10-04T18:45:29.947Z,14.046822742474916
2022-10-04T18:51:57.597Z,12.652173913043478
2022-10-04T18:58:53.231Z,12.160535117056856
2022-10-04T19:09:45.756Z,12.866220735785953
2022-10-04T19:16:13.811Z,13.40133779264214
2022-10-04T19:24:12.669Z,12.137123745819398
2022-10-04T19:39:21.033Z,12.080267558528428
2022-10-04T19:45:48.766Z,12.013377926421406
2022-10-04T19:52:16.098Z,12.003344481605351
2022-10-04T19:58:43.389Z,12.143812709030101
2022-10-04T20:05:59.127Z,12.25752508361204
2022-10-04T20:12:26.867Z,12.926421404682275
2022-10-04T20:20:04.443Z,13.421404682274247
2022-10-04T20:38:31.660Z,12.020066889632107
2022-10-04T20:45:09.115Z,11.200668896321071
2022-10-04T20:51:38.109Z,11.66220735785953
2022-10-04T20:58:06.625Z,11.652173913043478
2022-10-04T21:07:25.294Z,10.94314381270903
2022-10-04T21:16:03.517Z,11.307692307692308
2022-10-04T21:22:32.083Z,11.304347826086957
2022-10-04T21:31:44.902Z,11.612040133779264
2022-10-04T21:38:14.152Z,10.612040133779264
2022-10-04T21:44:47.671Z,10.852842809364548
2022-10-04T21:51:16.563Z,10.91304347826087
2022-10-04T21:57:46.249Z,10.879598662207357
2022-10-04T22:04:14.963Z,10.591973244147157
2022-10-04T22:10:43.326Z,11.45819397993311
2022-10-04T22:17:13.974Z,11.23076923076923
2022-10-04T22:23:42.380Z,11.03010033444816
2022-10-04T22:30:10.322Z,10.642140468227424
2022-10-04T22:38:05.614Z,11.842809364548495
2022-10-04T22:49:34.693Z,10.782608695652174
2022-10-04T22:56:07.229Z,11.953177257525084
2022-10-04T23:02:37.288Z,11.133779264214047
2022-10-04T23:09:05.357Z,12.274247491638796
2022-10-04T23:15:40.523Z,12.846153846153847
2022-10-04T23:22:11.749Z,12.34448160535117
2022-10-04T23:31:27.830Z,12.334448160535118
2022-10-04T23:38:00.598Z,12.581939799331103
2022-10-04T23:45:03.286Z,12.327759197324415
2022-10-04T23:51:35.238Z,12.441471571906355
2022-10-04T23:58:05.015Z,12.053511705685619
